createdAt,value
2018-04-15T00:00:55.664Z,15.10
2018-04-15T00:03:24.555Z,14.80
2018-04-15T00:05:54.361Z,15.10
2018-04-15T00:08:23.316Z,15.10
2018-04-15T00:10:52.323Z,15.00
2018-04-15T00:13:21.237Z,15.10
2018-04-15T00:15:50.117Z,15.00
2018-04-15T00:18:19.092Z,15.00
2018-04-15T00:20:48.890Z,15.10
2018-04-15T00:23:17.862Z,15.10
2018-04-15T00:25:46.876Z,15.20
2018-04-15T00:28:15.768Z,15.10
2018-04-15T00:30:44.643Z,15.30
2018-04-15T00:33:13.569Z,15.20
2018-04-15T00:35:42.456Z,15.40
2018-04-15T00:38:11.339Z,15.60
2018-04-15T00:40:40.298Z,15.40
2018-04-15T00:43:09.452Z,15.20
2018-04-15T00:45:38.334Z,15.20
2018-04-15T00:48:07.220Z,15.30
2018-04-15T00:50:36.143Z,15.10
2018-04-15T00:53:05.852Z,15.00
2018-04-15T00:55:34.768Z,15.00
2018-04-15T00:58:03.655Z,15.10
2018-04-15T01:00:32.533Z,15.30
2018-04-15T01:03:02.308Z,15.20
2018-04-15T01:05:31.218Z,15.20
2018-04-15T01:08:00.127Z,15.10
2018-04-15T01:10:29.016Z,15.10
2018-04-15T01:12:58.735Z,15.00
2018-04-15T01:15:27.657Z,15.00
2018-04-15T01:17:56.605Z,15.00
2018-04-15T01:20:25.559Z,14.80
2018-04-15T01:22:54.548Z,14.90
2018-04-15T01:25:23.476Z,15.00
2018-04-15T01:27:53.155Z,14.70
2018-04-15T01:30:22.424Z,14.70
2018-04-15T01:32:51.441Z,14.80
2018-04-15T01:35:20.341Z,14.90
2018-04-15T01:37:49.246Z,14.80
2018-04-15T01:40:18.155Z,14.70
2018-04-15T01:42:47.128Z,14.60
2018-04-15T01:45:16.004Z,14.70
2018-04-15T01:47:44.919Z,14.70
2018-04-15T01:50:13.819Z,14.60
2018-04-15T01:52:42.876Z,14.50
2018-04-15T01:55:11.869Z,14.60
2018-04-15T01:57:40.767Z,14.60
2018-04-15T02:00:09.649Z,14.60
2018-04-15T02:02:38.575Z,14.60
2018-04-15T02:05:07.605Z,14.50
2018-04-15T02:07:36.463Z,14.40
2018-04-15T02:10:05.497Z,14.40
2018-04-15T02:12:34.395Z,14.30
2018-04-15T02:15:03.366Z,14.30
2018-04-15T02:17:32.265Z,14.50
2018-04-15T02:20:01.155Z,14.40
2018-04-15T02:22:30.052Z,14.10
2018-04-15T02:24:58.924Z,14.20
2018-04-15T02:27:27.888Z,14.20
2018-04-15T02:29:56.840Z,14.40
2018-04-15T02:32:25.768Z,14.40
2018-04-15T02:34:55.565Z,14.50
2018-04-15T02:37:24.480Z,14.40
2018-04-15T02:39:53.368Z,14.40
2018-04-15T02:42:23.165Z,14.50
2018-04-15T02:44:52.096Z,14.40
2018-04-15T02:47:21.015Z,14.30
2018-04-15T02:49:49.949Z,14.40
2018-04-15T02:52:18.830Z,14.10
2018-04-15T02:54:47.878Z,14.10
2018-04-15T02:57:17.089Z,13.90
2018-04-15T02:59:45.989Z,13.80
2018-04-15T03:02:14.882Z,13.90
2018-04-15T03:04:43.887Z,14.00
2018-04-15T03:07:12.768Z,14.00
2018-04-15T03:09:41.658Z,14.00
2018-04-15T03:12:10.573Z,14.00
2018-04-15T03:14:40.140Z,14.20
2018-04-15T03:17:09.093Z,14.20
2018-04-15T03:19:38.753Z,14.10
2018-04-15T03:22:07.736Z,14.10
2018-04-15T03:24:36.708Z,14.00
2018-04-15T03:27:05.711Z,14.10
2018-04-15T03:29:34.651Z,14.20
2018-04-15T03:32:04.285Z,14.20
2018-04-15T03:34:33.180Z,14.20
2018-04-15T03:37:02.047Z,14.00
2018-04-15T03:39:31.700Z,13.80
2018-04-15T03:42:00.600Z,13.80
2018-04-15T03:44:29.548Z,13.90
2018-04-15T03:46:58.508Z,13.80
2018-04-15T03:49:27.496Z,13.70
2018-04-15T03:51:56.371Z,13.70
2018-04-15T03:54:25.263Z,13.70
2018-04-15T03:56:54.188Z,13.90
2018-04-15T03:59:23.835Z,13.70
2018-04-15T04:01:53.212Z,13.70
2018-04-15T04:04:22.880Z,13.60
2018-04-15T04:06:51.765Z,13.60
2018-04-15T04:09:20.742Z,13.80
2018-04-15T04:11:49.636Z,13.70
2018-04-15T04:14:18.603Z,13.50
2018-04-15T04:16:47.492Z,13.50
2018-04-15T04:19:34.200Z,13.40
2018-04-15T04:25:34.017Z,13.70
2018-04-15T04:28:02.885Z,13.80
2018-04-15T04:30:31.784Z,13.90
2018-04-15T04:33:01.472Z,13.90
2018-04-15T04:35:30.452Z,13.90
2018-04-15T04:37:59.351Z,13.90
2018-04-15T04:40:28.335Z,13.90
2018-04-15T04:42:57.204Z,13.80
2018-04-15T04:45:26.159Z,13.70
2018-04-15T04:47:55.116Z,13.80
2018-04-15T04:50:23.996Z,13.80
2018-04-15T04:52:52.888Z,13.80
2018-04-15T04:55:21.920Z,13.80
2018-04-15T04:57:50.937Z,13.80
2018-04-15T05:00:20.182Z,13.90
2018-04-15T05:02:49.237Z,14.00
2018-04-15T05:05:18.158Z,14.00
2018-04-15T05:07:47.898Z,14.10
2018-04-15T05:10:16.840Z,14.00
2018-04-15T05:12:45.753Z,14.10
2018-04-15T05:15:14.780Z,14.20
2018-04-15T05:17:43.882Z,14.40
2018-04-15T05:20:12.848Z,14.40
2018-04-15T05:22:41.739Z,14.40
2018-04-15T05:25:10.640Z,14.60
2018-04-15T05:27:39.814Z,14.60
2018-04-15T05:30:08.783Z,14.70
2018-04-15T05:32:37.780Z,14.70
2018-04-15T05:35:06.700Z,14.70
2018-04-15T05:37:35.648Z,14.70
2018-04-15T05:40:04.607Z,14.70
2018-04-15T05:42:34.293Z,14.80
2018-04-15T05:45:03.192Z,14.80
2018-04-15T05:47:32.124Z,14.80
2018-04-15T05:50:01.896Z,14.90
2018-04-15T05:52:30.879Z,14.90
2018-04-15T05:54:59.809Z,14.80
2018-04-15T05:57:28.752Z,14.80
2018-04-15T05:59:57.781Z,14.90
2018-04-15T06:02:27.496Z,15.00
2018-04-15T06:04:57.207Z,15.10
2018-04-15T06:07:26.863Z,15.20
2018-04-15T06:09:55.884Z,15.10
2018-04-15T06:12:24.897Z,15.10
2018-04-15T06:14:54.568Z,15.20
2018-04-15T06:17:23.490Z,15.20
2018-04-15T06:19:52.739Z,15.20
2018-04-15T06:22:21.757Z,15.20
2018-04-15T06:24:50.796Z,15.30
2018-04-15T06:27:19.715Z,15.30
2018-04-15T06:29:48.621Z,15.30
2018-04-15T06:32:17.555Z,15.30
2018-04-15T06:34:47.205Z,15.30
2018-04-15T06:37:16.128Z,15.30
2018-04-15T06:39:45.052Z,15.30
2018-04-15T06:42:14.707Z,15.30
2018-04-15T06:44:43.632Z,15.30
2018-04-15T06:47:12.631Z,15.40
2018-04-15T06:49:41.526Z,15.40
2018-04-15T06:52:10.628Z,15.50
2018-04-15T06:54:40.299Z,15.60
2018-04-15T06:57:09.204Z,15.60
2018-04-15T06:59:38.212Z,15.70
2018-04-15T07:02:07.134Z,15.70
2018-04-15T07:04:36.262Z,15.80
2018-04-15T07:07:05.202Z,16.00
2018-04-15T07:09:34.967Z,16.30
2018-04-15T07:12:03.880Z,16.30
2018-04-15T07:14:32.801Z,16.40
2018-04-15T07:17:01.702Z,16.40
2018-04-15T07:19:30.618Z,16.50
2018-04-15T07:21:59.633Z,16.40
2018-04-15T07:24:28.548Z,16.40
2018-04-15T07:26:58.478Z,16.60
2018-04-15T07:29:27.372Z,16.60
2018-04-15T07:31:57.217Z,16.90
2018-04-15T07:34:26.243Z,16.80
2018-04-15T07:36:55.167Z,17.10
2018-04-15T07:39:24.864Z,17.20
2018-04-15T07:41:53.995Z,17.10
2018-04-15T07:44:23.164Z,17.50
2018-04-15T07:46:52.878Z,19.00
2018-04-15T07:49:22.563Z,19.10
2018-04-15T07:51:51.452Z,19.20
2018-04-15T07:54:20.399Z,20.00
2018-04-15T07:56:49.352Z,19.60
2018-04-15T07:59:19.024Z,19.40
2018-04-15T08:01:47.936Z,19.40
2018-04-15T08:04:16.998Z,19.30
2018-04-15T08:06:45.963Z,19.70
2018-04-15T08:09:14.865Z,19.60
2018-04-15T08:11:44.808Z,19.10
2018-04-15T08:14:13.744Z,19.00
2018-04-15T08:16:43.838Z,19.20
2018-04-15T08:19:12.923Z,19.20
2018-04-15T08:21:41.852Z,19.00
2018-04-15T08:24:11.526Z,19.80
2018-04-15T08:26:40.448Z,19.90
2018-04-15T08:29:10.104Z,20.00
2018-04-15T08:31:39.012Z,19.90
2018-04-15T08:34:07.955Z,20.10
2018-04-15T08:36:36.885Z,20.00
2018-04-15T08:39:05.901Z,20.00
2018-04-15T08:41:34.821Z,19.90
2018-04-15T08:44:04.580Z,20.60
2018-04-15T08:46:33.611Z,20.60
2018-04-15T08:49:02.644Z,21.10
2018-04-15T08:51:31.544Z,21.50
2018-04-15T08:54:00.496Z,22.00
2018-04-15T08:56:30.160Z,21.00
2018-04-15T08:58:59.054Z,21.00
2018-04-15T09:01:28.756Z,20.80
2018-04-15T09:03:57.691Z,20.70
2018-04-15T09:06:27.398Z,20.90
2018-04-15T09:08:56.355Z,20.90
2018-04-15T09:11:25.267Z,20.70
2018-04-15T09:13:54.155Z,21.00
2018-04-15T09:16:23.093Z,21.60
2018-04-15T09:18:52.008Z,22.00
2018-04-15T09:21:20.945Z,22.10
2018-04-15T09:23:50.053Z,21.70
2018-04-15T09:26:19.770Z,21.50
2018-04-15T09:28:48.819Z,21.50
2018-04-15T09:31:17.797Z,21.20
2018-04-15T09:33:46.831Z,21.60
2018-04-15T09:36:15.912Z,21.90
2018-04-15T09:38:44.956Z,21.60
2018-04-15T09:41:13.870Z,21.20
2018-04-15T09:43:43.734Z,20.80
2018-04-15T09:46:13.480Z,21.30
2018-04-15T09:48:42.484Z,21.30
2018-04-15T09:51:11.394Z,22.00
2018-04-15T09:53:40.377Z,22.30
2018-04-15T09:56:09.648Z,22.90
2018-04-15T09:58:38.633Z,22.70
2018-04-15T10:01:07.619Z,22.70
2018-04-15T10:03:36.678Z,22.80
2018-04-15T10:06:05.720Z,22.80
2018-04-15T10:08:34.662Z,23.00
2018-04-15T10:11:04.583Z,23.00
2018-04-15T10:13:33.476Z,22.80
2018-04-15T10:16:02.473Z,23.00
2018-04-15T10:18:31.458Z,23.40
2018-04-15T10:21:00.452Z,23.00
2018-04-15T10:23:29.383Z,22.70
2018-04-15T10:25:58.295Z,22.20
2018-04-15T10:28:27.223Z,22.20
2018-04-15T10:30:56.431Z,22.10
2018-04-15T10:33:26.206Z,21.90
2018-04-15T10:35:55.198Z,21.80
2018-04-15T10:38:24.103Z,21.80
2018-04-15T10:40:53.025Z,22.20
2018-04-15T10:43:22.711Z,22.60
2018-04-15T10:45:52.485Z,22.50
2018-04-15T10:48:21.377Z,22.50
2018-04-15T10:50:50.280Z,22.70
2018-04-15T10:53:19.171Z,22.70
2018-04-15T10:55:48.120Z,22.90
2018-04-15T10:58:18.794Z,23.30
2018-04-15T11:00:47.757Z,23.50
2018-04-15T11:03:16.679Z,23.50
2018-04-15T11:05:46.397Z,23.10
2018-04-15T11:08:15.322Z,23.10
2018-04-15T11:10:44.248Z,22.80
2018-04-15T11:13:13.140Z,22.80
2018-04-15T11:15:42.077Z,23.00
2018-04-15T11:18:11.082Z,22.70
2018-04-15T11:20:40.076Z,22.70
2018-04-15T11:23:09.892Z,23.00
2018-04-15T11:25:39.665Z,23.20
2018-04-15T11:28:08.524Z,23.20
2018-04-15T11:30:37.431Z,23.30
2018-04-15T11:33:06.321Z,23.40
2018-04-15T11:35:35.291Z,23.40
2018-04-15T11:38:04.325Z,23.40
2018-04-15T11:40:33.288Z,23.30
2018-04-15T11:43:02.203Z,23.10
2018-04-15T11:45:31.285Z,23.00
2018-04-15T11:48:00.180Z,22.90
2018-04-15T11:50:29.107Z,23.00
2018-04-15T11:52:58.121Z,22.90
2018-04-15T11:55:27.739Z,23.10
2018-04-15T11:57:56.913Z,23.10
2018-04-15T12:00:26.565Z,23.20
2018-04-15T12:02:55.455Z,23.20
2018-04-15T12:05:24.460Z,23.20
2018-04-15T12:07:54.169Z,23.20
2018-04-15T12:10:23.108Z,23.10
2018-04-15T12:12:52.084Z,22.90
2018-04-15T12:15:21.072Z,23.00
2018-04-15T12:17:50.072Z,23.10
2018-04-15T12:20:19.109Z,23.10
2018-04-15T12:22:48.090Z,23.00
2018-04-15T12:25:17.840Z,23.00
2018-04-15T12:27:47.541Z,23.10
2018-04-15T12:30:16.474Z,23.10
2018-04-15T12:32:45.407Z,23.30
2018-04-15T12:35:14.356Z,23.20
2018-04-15T12:37:43.281Z,23.10
2018-04-15T12:40:12.290Z,23.20
2018-04-15T12:42:41.332Z,23.20
2018-04-15T12:45:10.293Z,23.20
2018-04-15T12:47:39.920Z,23.20
2018-04-15T12:50:08.877Z,23.20
2018-04-15T12:52:37.818Z,23.30
2018-04-15T12:55:06.732Z,23.30
2018-04-15T12:57:35.748Z,23.30
2018-04-15T13:00:04.779Z,23.10
2018-04-15T13:02:33.770Z,23.00
2018-04-15T13:05:02.802Z,23.20
2018-04-15T13:07:32.576Z,23.30
2018-04-15T13:10:01.723Z,23.30
2018-04-15T13:12:30.714Z,23.20
2018-04-15T13:14:59.641Z,23.20
2018-04-15T13:17:28.717Z,23.20
2018-04-15T13:19:57.829Z,23.10
2018-04-15T13:22:26.763Z,23.20
2018-04-15T13:24:56.501Z,23.20
2018-04-15T13:27:26.150Z,23.10
2018-04-15T13:29:55.105Z,23.20
2018-04-15T13:32:24.128Z,23.30
2018-04-15T13:34:53.298Z,23.30
2018-04-15T13:37:22.203Z,23.20
2018-04-15T13:39:51.223Z,23.20
2018-04-15T13:42:20.409Z,23.20
2018-04-15T13:44:49.321Z,23.20
2018-04-15T13:47:18.304Z,23.20
2018-04-15T13:49:47.171Z,23.20
2018-04-15T13:52:16.192Z,23.20
2018-04-15T13:54:45.348Z,23.10
2018-04-15T13:57:14.585Z,23.10
2018-04-15T13:59:43.484Z,23.10
2018-04-15T14:02:12.555Z,23.20
2018-04-15T14:04:41.551Z,23.10
2018-04-15T14:07:10.481Z,23.10
2018-04-15T14:09:39.423Z,23.10
2018-04-15T14:12:08.336Z,23.00
2018-04-15T14:14:37.264Z,22.90
2018-04-15T14:17:06.912Z,23.00
2018-04-15T14:19:35.885Z,22.90
2018-04-15T14:22:04.880Z,23.00
2018-04-15T14:24:33.820Z,22.90
2018-04-15T14:27:02.724Z,22.90
2018-04-15T14:29:31.787Z,22.90
2018-04-15T14:32:01.016Z,22.90
2018-04-15T14:34:29.956Z,22.90
2018-04-15T14:36:58.916Z,22.80
2018-04-15T14:39:27.967Z,22.80
2018-04-15T14:41:56.932Z,22.70
2018-04-15T14:44:26.104Z,22.70
2018-04-15T14:46:54.975Z,22.70
2018-04-15T14:49:23.915Z,22.70
2018-04-15T14:51:52.837Z,22.60
2018-04-15T14:54:21.767Z,22.60
2018-04-15T14:56:50.853Z,22.60
2018-04-15T14:59:20.348Z,22.60
2018-04-15T15:01:49.321Z,22.60
2018-04-15T15:04:18.265Z,22.60
2018-04-15T15:06:47.254Z,22.60
2018-04-15T15:09:16.217Z,22.60
2018-04-15T15:11:45.113Z,22.50
2018-04-15T15:14:14.045Z,22.50
2018-04-15T15:16:43.076Z,22.50
2018-04-15T15:19:12.102Z,22.40
2018-04-15T15:21:41.821Z,22.40
2018-04-15T15:24:10.732Z,22.40
2018-04-15T15:26:39.723Z,22.40
2018-04-15T15:29:08.648Z,22.40
2018-04-15T15:31:37.576Z,22.30
2018-04-15T15:34:07.261Z,22.40
2018-04-15T15:36:36.445Z,22.30
2018-04-15T15:39:07.365Z,22.30
2018-04-15T15:41:36.285Z,22.30
2018-04-15T15:44:05.352Z,22.30
2018-04-15T15:46:34.482Z,22.30
2018-04-15T15:49:03.768Z,22.20
2018-04-15T15:51:32.684Z,22.30
2018-04-15T15:54:01.876Z,22.30
2018-04-15T15:56:30.861Z,22.20
2018-04-15T15:58:59.780Z,22.20
2018-04-15T16:01:28.698Z,22.20
2018-04-15T16:03:57.669Z,22.10
2018-04-15T16:06:26.680Z,22.10
2018-04-15T16:08:55.605Z,22.10
2018-04-15T16:11:24.636Z,22.10
2018-04-15T16:13:54.445Z,22.10
2018-04-15T16:16:23.427Z,22.00
2018-04-15T16:18:52.392Z,22.00
2018-04-15T16:21:21.456Z,22.00
2018-04-15T16:23:50.374Z,22.00
2018-04-15T16:26:19.296Z,22.00
2018-04-15T16:28:48.166Z,21.90
2018-04-15T16:31:17.094Z,21.90
2018-04-15T16:33:46.761Z,21.90
2018-04-15T16:36:15.669Z,21.90
2018-04-15T16:38:44.724Z,21.80
2018-04-15T16:41:13.786Z,21.80
2018-04-15T16:43:42.661Z,21.80
2018-04-15T16:46:11.822Z,21.70
2018-04-15T16:48:40.791Z,21.70
2018-04-15T16:51:09.719Z,21.70
2018-04-15T16:53:38.604Z,21.60
2018-04-15T16:56:07.551Z,21.50
2018-04-15T16:58:36.505Z,21.50
2018-04-15T17:01:06.629Z,21.50
2018-04-15T17:03:36.301Z,21.40
2018-04-15T17:06:05.347Z,21.40
2018-04-15T17:08:35.028Z,21.40
2018-04-15T17:11:04.032Z,21.40
2018-04-15T17:13:33.724Z,21.20
2018-04-15T17:16:02.876Z,21.20
2018-04-15T17:18:31.839Z,21.10
2018-04-15T17:21:01.496Z,21.00
2018-04-15T17:23:30.381Z,21.00
2018-04-15T17:25:59.328Z,21.00
2018-04-15T17:28:28.261Z,20.90
2018-04-15T17:30:57.148Z,20.90
2018-04-15T17:33:26.123Z,20.80
2018-04-15T17:35:55.786Z,20.80
2018-04-15T17:38:24.697Z,20.70
2018-04-15T17:40:54.452Z,20.70
2018-04-15T17:43:23.343Z,20.70
2018-04-15T17:45:52.341Z,20.70
2018-04-15T17:48:21.386Z,20.70
2018-04-15T17:50:50.429Z,20.80
2018-04-15T17:53:19.350Z,20.80
2018-04-15T17:55:48.361Z,20.70
2018-04-15T17:58:17.376Z,20.70
2018-04-15T18:00:47.083Z,20.70
2018-04-15T18:03:16.825Z,20.70
2018-04-15T18:05:45.733Z,20.70
2018-04-15T18:08:14.730Z,20.60
2018-04-15T18:10:43.697Z,20.60
2018-04-15T18:13:12.707Z,20.60
2018-04-15T18:15:41.769Z,20.60
2018-04-15T18:18:10.716Z,20.40
2018-04-15T18:20:39.648Z,20.40
2018-04-15T18:23:08.674Z,20.40
2018-04-15T18:25:37.694Z,20.40
2018-04-15T18:28:07.192Z,20.40
2018-04-15T18:30:37.150Z,20.50
2018-04-15T18:33:06.820Z,20.40
2018-04-15T18:35:35.798Z,20.50
2018-04-15T18:38:04.747Z,20.40
2018-04-15T18:40:33.932Z,20.40
2018-04-15T18:43:03.632Z,20.40
2018-04-15T18:45:32.631Z,20.40
2018-04-15T18:48:01.872Z,20.40
2018-04-15T18:50:31.280Z,20.40
2018-04-15T18:53:00.393Z,20.40
2018-04-15T18:55:29.388Z,20.40
2018-04-15T18:57:58.533Z,20.40
2018-04-15T19:00:27.504Z,20.40
2018-04-15T19:02:57.341Z,20.30
2018-04-15T19:05:26.325Z,20.30
2018-04-15T19:07:56.169Z,20.30
2018-04-15T19:10:25.165Z,20.30
2018-04-15T19:12:54.097Z,20.30
2018-04-15T19:15:23.073Z,20.20
2018-04-15T19:17:52.005Z,20.20
2018-04-15T19:20:20.894Z,20.10
2018-04-15T19:22:50.694Z,20.10
2018-04-15T19:25:19.699Z,20.10
2018-04-15T19:27:49.476Z,20.10
2018-04-15T19:30:18.516Z,20.10
2018-04-15T19:32:47.418Z,20.10
2018-04-15T19:35:16.378Z,20.10
2018-04-15T19:37:45.301Z,20.20
2018-04-15T19:40:15.584Z,20.00
2018-04-15T19:42:44.493Z,20.00
2018-04-15T19:45:13.489Z,19.90
2018-04-15T19:47:43.206Z,19.90
2018-04-15T19:50:12.136Z,19.90
2018-04-15T19:52:41.279Z,19.90
2018-04-15T19:55:11.034Z,19.80
2018-04-15T19:57:39.959Z,19.80
2018-04-15T20:00:08.946Z,19.70
2018-04-15T20:02:37.844Z,19.70
2018-04-15T20:05:06.804Z,19.60
2018-04-15T20:07:35.743Z,19.60
2018-04-15T20:10:04.954Z,19.50
2018-04-15T20:12:33.903Z,19.50
2018-04-15T20:15:02.822Z,19.50
2018-04-15T20:17:33.721Z,19.50
2018-04-15T20:20:02.698Z,19.50
2018-04-15T20:22:31.644Z,19.50
2018-04-15T20:25:00.634Z,19.50
2018-04-15T20:27:29.623Z,19.40
2018-04-15T20:29:58.523Z,19.40
2018-04-15T20:32:28.208Z,19.30
2018-04-15T20:34:57.388Z,19.30
2018-04-15T20:37:26.321Z,19.30
2018-04-15T20:39:56.069Z,19.30
2018-04-15T20:42:25.002Z,19.20
2018-04-15T20:44:53.995Z,19.20
2018-04-15T20:47:23.040Z,19.20
2018-04-15T20:49:52.109Z,19.10
2018-04-15T20:52:21.043Z,19.10
2018-04-15T20:54:50.055Z,19.10
2018-04-15T20:57:19.004Z,19.10
2018-04-15T20:59:49.550Z,19.00
2018-04-15T21:02:18.446Z,19.00
2018-04-15T21:04:47.424Z,19.10
2018-04-15T21:07:16.455Z,19.00
2018-04-15T21:09:45.454Z,19.10
2018-04-15T21:12:14.384Z,19.10
2018-04-15T21:14:43.477Z,19.10
2018-04-15T21:17:12.451Z,19.10
2018-04-15T21:19:41.518Z,19.10
2018-04-15T21:22:11.657Z,19.00
2018-04-15T21:24:40.548Z,19.00
2018-04-15T21:27:09.581Z,19.00
2018-04-15T21:29:38.616Z,19.00
2018-04-15T21:32:07.539Z,19.00
2018-04-15T21:34:37.249Z,19.00
2018-04-15T21:37:06.261Z,19.00
2018-04-15T21:39:35.199Z,19.00
2018-04-15T21:42:04.242Z,19.00
2018-04-15T21:44:33.149Z,19.00
2018-04-15T21:47:02.322Z,19.00
2018-04-15T21:49:31.969Z,19.00
2018-04-15T21:52:00.870Z,19.00
2018-04-15T21:54:30.609Z,18.90
2018-04-15T21:56:59.692Z,18.90
2018-04-15T21:59:29.228Z,19.00
2018-04-15T22:01:58.980Z,19.00
2018-04-15T22:04:28.024Z,19.00
2018-04-15T22:06:56.997Z,19.00
2018-04-15T22:09:25.989Z,19.00
2018-04-15T22:12:12.648Z,19.00
2018-04-15T22:14:41.773Z,19.00
2018-04-15T22:17:10.717Z,19.00
2018-04-15T22:19:40.412Z,18.90
2018-04-15T22:22:10.112Z,18.90
2018-04-15T22:24:39.022Z,18.80
2018-04-15T22:27:08.779Z,18.80
2018-04-15T22:29:37.707Z,18.80
2018-04-15T22:32:06.640Z,18.80
2018-04-15T22:34:36.378Z,18.80
2018-04-15T22:37:05.350Z,18.80
2018-04-15T22:39:34.383Z,18.70
2018-04-15T22:42:03.365Z,18.80
2018-04-15T22:44:32.575Z,18.80
2018-04-15T22:47:01.523Z,18.80
2018-04-15T22:49:31.338Z,18.80
2018-04-15T22:52:02.570Z,18.80
2018-04-15T22:54:31.786Z,18.80
2018-04-15T22:57:06.400Z,18.80
2018-04-15T22:59:35.491Z,18.70
2018-04-15T23:02:17.844Z,18.70
2018-04-15T23:04:51.334Z,18.70
2018-04-15T23:07:20.454Z,18.70
2018-04-15T23:09:50.830Z,18.70
2018-04-15T23:12:19.822Z,18.60
2018-04-15T23:14:48.760Z,18.60
2018-04-15T23:17:17.681Z,18.70
2018-04-15T23:19:46.615Z,18.70
2018-04-15T23:22:15.488Z,18.70
2018-04-15T23:24:44.381Z,18.60
2018-04-15T23:27:13.363Z,18.60
2018-04-15T23:29:42.678Z,18.50
2018-04-15T23:32:11.664Z,18.50
2018-04-15T23:34:40.619Z,18.40
2018-04-15T23:37:11.061Z,18.40
2018-04-15T23:39:39.999Z,18.40
2018-04-15T23:42:08.935Z,18.50
2018-04-15T23:44:37.806Z,18.50
2018-04-15T23:47:07.090Z,18.50
2018-04-15T23:49:36.003Z,18.50
2018-04-15T23:52:05.734Z,18.50
2018-04-15T23:54:35.389Z,18.50
2018-04-15T23:57:05.148Z,18.50
2018-04-15T23:59:34.846Z,18.60
